Time;durP1;ratioP1;P1;durP2;ratioP2;P2;SDS_P1;SDS_P2;PMS_P1;PMS_P2;Temp;Humidity;BMP_temperature;BMP_pressure;BME280_temperature;BME280_humidity;BME280_pressure;Samples;Min_cycle;Max_cycle;Signal;HPM_P1;HPM_P2
2023/03/11 00:00:21;;;;;;;9.73;1.37;;;2.50;99.90;;;;;;4882892;29;37473;-75
2023/03/11 00:02:49;;;;;;;2.50;0.60;;;2.40;99.90;;;;;;4887868;29;38702;-75
2023/03/11 00:05:18;;;;;;;6.20;1.10;;;2.40;99.90;;;;;;4904379;29;38082;-75
2023/03/11 00:07:45;;;;;;;4.63;0.70;;;2.40;99.90;;;;;;4904376;29;38084;-74
2023/03/11 00:10:20;;;;;;;4.77;1.07;;;2.30;99.90;;;;;;4910205;29;39499;-75
2023/03/11 00:12:46;;;;;;;6.87;0.70;;;2.30;99.90;;;;;;4892366;29;37813;-75
2023/03/11 00:15:13;;;;;;;7.93;1.27;;;2.30;99.90;;;;;;4894498;29;37403;-75
2023/03/11 00:17:39;;;;;;;5.43;1.00;;;2.30;99.90;;;;;;4892660;29;36661;-75
2023/03/11 00:20:12;;;;;;;6.43;1.00;;;2.30;99.90;;;;;;4889723;29;37839;-75
2023/03/11 00:22:39;;;;;;;4.30;0.70;;;2.40;99.90;;;;;;4886229;29;39346;-74
2023/03/11 00:25:05;;;;;;;2.97;0.80;;;2.40;99.90;;;;;;4884694;29;38092;-75
2023/03/11 00:27:31;;;;;;;7.50;0.83;;;2.40;99.90;;;;;;4884936;29;36150;-75
2023/03/11 00:29:57;;;;;;;1.83;0.80;;;2.40;99.90;;;;;;4892815;29;37666;-75
2023/03/11 00:32:23;;;;;;;4.63;0.87;;;2.30;99.90;;;;;;4903448;29;38481;-75
2023/03/11 00:34:49;;;;;;;7.30;1.60;;;2.40;99.90;;;;;;4904222;29;38256;-75
2023/03/11 00:37:15;;;;;;;10.00;1.20;;;2.30;99.90;;;;;;4899674;29;38468;-75
2023/03/11 00:39:41;;;;;;;8.53;0.90;;;2.40;99.90;;;;;;4905380;29;39274;-76
2023/03/11 00:42:07;;;;;;;7.53;0.90;;;2.40;99.90;;;;;;4909069;29;39569;-75
2023/03/11 00:44:33;;;;;;;2.40;0.93;;;2.30;99.90;;;;;;4892997;29;37481;-75
2023/03/11 00:46:59;;;;;;;6.63;0.77;;;2.30;99.90;;;;;;4908046;29;37762;-76
2023/03/11 00:49:25;;;;;;;4.73;1.03;;;2.20;99.90;;;;;;4885732;29;37536;-75
2023/03/11 00:51:51;;;;;;;7.53;1.00;;;2.20;99.90;;;;;;4885324;29;37688;-76
2023/03/11 00:54:18;;;;;;;7.30;1.13;;;2.20;99.90;;;;;;4883472;29;39231;-75
2023/03/11 00:56:44;;;;;;;7.60;0.80;;;2.20;99.90;;;;;;4885342;29;35864;-76
2023/03/11 00:59:10;;;;;;;5.83;0.83;;;2.10;99.90;;;;;;4884096;29;39287;-76
2023/03/11 01:01:36;;;;;;;1.80;0.67;;;2.10;99.90;;;;;;4902819;29;38680;-76
2023/03/11 01:04:02;;;;;;;6.50;0.97;;;2.00;99.90;;;;;;4892133;29;37560;-76
2023/03/11 01:06:28;;;;;;;5.63;0.77;;;1.90;99.90;;;;;;4889678;29;37227;-76
2023/03/11 01:08:54;;;;;;;4.60;0.60;;;1.90;99.90;;;;;;4888514;29;38498;-76
2023/03/11 01:11:20;;;;;;;9.13;1.20;;;1.70;99.90;;;;;;4889948;29;37726;-77
2023/03/11 01:13:46;;;;;;;6.10;0.80;;;1.60;99.90;;;;;;4879591;29;37798;-76
2023/03/11 01:16:12;;;;;;;6.47;1.03;;;1.50;99.90;;;;;;4903110;29;37084;-75
2023/03/11 01:18:38;;;;;;;3.53;0.80;;;1.60;99.90;;;;;;4884128;29;37509;-76
2023/03/11 01:21:04;;;;;;;4.77;0.70;;;1.70;99.90;;;;;;4886826;29;37532;-76
2023/03/11 01:23:31;;;;;;;5.30;1.40;;;1.70;99.90;;;;;;4888736;29;38548;-75
2023/03/11 01:25:57;;;;;;;3.97;1.17;;;1.60;99.90;;;;;;4885019;29;36883;-75
2023/03/11 01:28:23;;;;;;;5.00;2.03;;;1.50;99.90;;;;;;4905026;29;39657;-75
2023/03/11 01:30:49;;;;;;;8.47;1.00;;;1.40;99.90;;;;;;4900215;29;39870;-76
2023/03/11 01:33:18;;;;;;;7.57;1.43;;;1.40;99.90;;;;;;4881336;29;38593;-76
2023/03/11 01:35:45;;;;;;;4.93;1.10;;;1.40;99.90;;;;;;4878107;29;37397;-75
2023/03/11 01:38:11;;;;;;;9.50;1.03;;;1.50;99.90;;;;;;4897718;29;39979;-75
2023/03/11 01:40:46;;;;;;;5.40;1.00;;;1.60;99.90;;;;;;4898443;29;37009;-76
2023/03/11 01:43:40;;;;;;;2.20;0.70;;;1.70;99.90;;;;;;4879399;29;37503;-75
2023/03/11 01:46:21;;;;;;;3.97;0.73;;;1.70;99.90;;;;;;4901808;29;37106;-75
2023/03/11 01:48:50;;;;;;;7.03;0.90;;;1.70;99.90;;;;;;4902115;29;38913;-76
2023/03/11 01:51:26;;;;;;;8.50;0.97;;;1.80;99.90;;;;;;4884587;29;39183;-76
2023/03/11 01:53:53;;;;;;;2.57;0.60;;;1.80;99.90;;;;;;4888727;29;38139;-76
2023/03/11 01:56:20;;;;;;;6.87;1.20;;;1.90;99.90;;;;;;4890369;29;36316;-76
2023/03/11 01:58:50;;;;;;;2.70;0.97;;;2.00;99.90;;;;;;4903504;29;40167;-75
2023/03/11 02:03:53;;;;;;;2.30;0.90;;;2.10;99.90;;;;;;4992703;23;20044;-80
2023/03/11 02:06:22;;;;;;;2.30;0.93;;;2.10;99.90;;;;;;4911377;29;35959;-81
2023/03/11 02:08:49;;;;;;;6.47;0.77;;;2.10;99.90;;;;;;4906969;29;37752;-80
2023/03/11 02:11:26;;;;;;;3.30;0.97;;;2.10;99.90;;;;;;4923667;29;40275;-79
2023/03/11 02:13:55;;;;;;;4.60;1.00;;;2.20;99.90;;;;;;4909972;29;38465;-80
2023/03/11 02:16:23;;;;;;;5.03;0.90;;;2.20;99.90;;;;;;4913287;29;37801;-84
2023/03/11 02:18:52;;;;;;;8.20;1.20;;;2.10;99.90;;;;;;4914394;29;38235;-81
2023/03/11 02:21:27;;;;;;;7.57;1.03;;;2.00;99.90;;;;;;4914581;28;38842;-80
2023/03/11 02:24:21;;;;;;;5.83;1.50;;;2.00;99.90;;;;;;4912635;29;37192;-80
2023/03/11 02:27:04;;;;;;;3.30;1.00;;;1.90;99.90;;;;;;4911307;29;47962;-81
2023/03/11 02:29:32;;;;;;;4.30;1.30;;;1.80;99.90;;;;;;4925555;29;48368;-81
2023/03/11 02:32:01;;;;;;;7.17;0.93;;;1.70;99.90;;;;;;4915633;29;37343;-81
2023/03/11 02:34:33;;;;;;;4.63;1.23;;;1.60;99.90;;;;;;4914029;29;46931;-82
2023/03/11 02:37:15;;;;;;;7.72;1.15;;;1.40;99.90;;;;;;4916594;29;36098;-81
2023/03/11 02:39:44;;;;;;;2.33;1.20;;;1.30;99.90;;;;;;4920168;29;48042;-81
2023/03/11 02:42:31;;;;;;;7.50;1.07;;;1.10;99.90;;;;;;4917385;28;38509;-81
2023/03/11 02:45:12;;;;;;;2.60;0.90;;;0.90;99.90;;;;;;4919849;29;38614;-81
2023/03/11 02:47:39;;;;;;;6.20;0.97;;;0.80;99.90;;;;;;4934439;29;49282;-81
2023/03/11 02:50:09;;;;;;;3.80;0.93;;;0.80;99.90;;;;;;4917458;29;38190;-81
2023/03/11 02:52:36;;;;;;;6.40;1.00;;;0.70;99.90;;;;;;4917570;29;37967;-81
2023/03/11 02:55:03;;;;;;;5.50;1.10;;;0.80;99.90;;;;;;4935320;29;38364;-81
2023/03/11 02:57:38;;;;;;;4.00;0.80;;;0.90;99.90;;;;;;4921794;29;38798;-82
2023/03/11 03:00:12;;;;;;;7.03;1.10;;;1.00;99.90;;;;;;4916687;29;37907;-81
2023/03/11 03:02:38;;;;;;;13.37;1.20;;;1.00;99.90;;;;;;4930585;29;39439;-81
2023/03/11 03:05:05;;;;;;;4.80;1.07;;;1.00;99.90;;;;;;4914222;29;37103;-81
2023/03/11 03:07:32;;;;;;;6.13;1.10;;;1.10;99.90;;;;;;4915797;29;36904;-81
2023/03/11 03:09:58;;;;;;;5.07;0.97;;;1.10;99.90;;;;;;4914018;29;37580;-80
2023/03/11 03:12:25;;;;;;;9.57;1.60;;;1.10;99.90;;;;;;4912577;29;37278;-81
2023/03/11 03:15:14;;;;;;;6.33;1.47;;;1.10;99.90;;;;;;4931655;29;39512;-81
2023/03/11 03:17:41;;;;;;;3.47;1.10;;;1.10;99.90;;;;;;4916712;29;48575;-81
2023/03/11 03:20:10;;;;;;;5.17;1.10;;;1.00;99.90;;;;;;4930096;29;39491;-81
2023/03/11 03:22:37;;;;;;;6.97;1.00;;;1.00;99.90;;;;;;4915422;29;38994;-80
2023/03/11 03:25:04;;;;;;;6.17;0.93;;;0.90;99.90;;;;;;4914848;29;37395;-81
2023/03/11 03:27:32;;;;;;;5.00;1.00;;;0.80;99.90;;;;;;4932782;29;36353;-81
2023/03/11 03:29:58;;;;;;;4.73;1.10;;;0.70;99.90;;;;;;4937075;29;39990;-83
2023/03/11 03:32:24;;;;;;;9.43;1.43;;;0.60;99.90;;;;;;4916620;29;38461;-82
2023/03/11 03:34:58;;;;;;;2.90;1.20;;;0.40;99.90;;;;;;4917959;29;38362;-81
2023/03/11 03:37:26;;;;;;;8.03;1.23;;;0.20;99.90;;;;;;4936176;29;38715;-81
2023/03/11 03:39:53;;;;;;;8.07;1.40;;;0.00;99.90;;;;;;4923719;29;37592;-81
2023/03/11 03:42:20;;;;;;;6.30;1.03;;;-0.10;99.90;;;;;;4910762;29;37677;-83
2023/03/11 03:44:46;;;;;;;5.00;1.07;;;-0.30;99.90;;;;;;4929610;28;38713;-81
2023/03/11 03:47:12;;;;;;;7.33;1.37;;;-0.40;99.90;;;;;;4918194;29;36913;-81
2023/03/11 03:49:39;;;;;;;5.07;1.20;;;-0.50;99.90;;;;;;4927907;28;39055;-80
2023/03/11 03:52:06;;;;;;;4.80;1.00;;;-0.60;99.90;;;;;;4914954;29;38766;-80
2023/03/11 03:54:32;;;;;;;5.63;1.30;;;-0.70;99.90;;;;;;4915029;29;38390;-81
2023/03/11 03:56:59;;;;;;;6.37;1.03;;;-0.70;99.90;;;;;;4915222;29;37041;-81
2023/03/11 03:59:27;;;;;;;5.70;1.23;;;-0.70;99.90;;;;;;4923971;29;37463;-81
2023/03/11 04:01:54;;;;;;;4.67;0.93;;;-0.70;99.90;;;;;;4912840;29;38821;-81
2023/03/11 04:04:20;;;;;;;4.33;1.00;;;-0.70;99.90;;;;;;4910030;29;38364;-81
2023/03/11 04:06:46;;;;;;;3.83;1.23;;;-0.70;99.90;;;;;;4928251;29;37566;-80
2023/03/11 04:09:13;;;;;;;4.07;1.10;;;-0.80;99.90;;;;;;4916041;29;38801;-83
2023/03/11 04:11:39;;;;;;;4.20;1.20;;;-0.80;99.90;;;;;;4917221;29;37802;-81
2023/03/11 04:14:05;;;;;;;3.97;1.17;;;-0.80;99.90;;;;;;4932526;29;39617;-80
2023/03/11 04:16:33;;;;;;;5.93;1.20;;;-0.80;99.90;;;;;;4925906;29;37460;-82
2023/03/11 04:18:59;;;;;;;3.57;1.17;;;-0.80;99.90;;;;;;4929402;29;40033;-83
2023/03/11 04:21:26;;;;;;;2.20;1.30;;;-0.90;99.90;;;;;;4913285;29;37288;-82
2023/03/11 04:23:52;;;;;;;3.77;1.20;;;-0.90;99.90;;;;;;4910627;29;36846;-80
2023/03/11 04:26:24;;;;;;;7.10;1.17;;;-1.00;99.90;;;;;;4911590;29;36004;-83
2023/03/11 04:28:50;;;;;;;5.68;1.13;;;-1.10;99.90;;;;;;4917302;29;38140;-81
2023/03/11 04:31:17;;;;;;;5.33;1.30;;;-1.10;99.90;;;;;;4913877;29;38678;-81
2023/03/11 04:33:43;;;;;;;6.83;1.20;;;-1.20;99.90;;;;;;4917773;29;39377;-82
2023/03/11 04:36:11;;;;;;;5.30;1.50;;;-1.20;99.90;;;;;;4918147;29;35919;-84
2023/03/11 04:38:38;;;;;;;8.87;1.70;;;-1.20;99.90;;;;;;4934460;29;41445;-82
2023/03/11 04:41:06;;;;;;;8.40;1.40;;;-1.20;99.90;;;;;;4909969;29;38723;-81
2023/03/11 04:43:33;;;;;;;4.33;1.10;;;-1.30;99.90;;;;;;4912964;29;38575;-81
2023/03/11 04:46:01;;;;;;;6.43;1.10;;;-1.30;99.90;;;;;;4934068;29;37608;-81
2023/03/11 04:48:27;;;;;;;4.00;1.10;;;-1.30;99.90;;;;;;4917441;29;38918;-81
2023/03/11 04:50:54;;;;;;;5.63;1.80;;;-1.30;99.90;;;;;;4913190;29;37294;-81
2023/03/11 04:53:22;;;;;;;2.87;1.40;;;-1.40;99.90;;;;;;4919946;29;38517;-81
2023/03/11 04:55:49;;;;;;;5.07;1.10;;;-1.40;99.90;;;;;;4929079;29;38676;-82
2023/03/11 04:58:15;;;;;;;2.70;1.10;;;-1.50;99.90;;;;;;4920234;29;38300;-82
2023/03/11 05:00:41;;;;;;;5.70;1.07;;;-1.50;99.90;;;;;;4921133;29;37864;-81
2023/03/11 05:03:07;;;;;;;5.20;1.63;;;-1.50;99.90;;;;;;4938567;28;39442;-81
2023/03/11 05:05:46;;;;;;;4.77;1.30;;;-1.50;99.90;;;;;;4929193;29;38864;-81
2023/03/11 05:08:13;;;;;;;3.70;1.20;;;-1.60;99.90;;;;;;4920987;29;38949;-82
2023/03/11 05:10:41;;;;;;;5.97;1.80;;;-1.70;99.90;;;;;;4921843;29;38029;-81
2023/03/11 05:13:07;;;;;;;5.60;1.33;;;-1.70;99.90;;;;;;4916237;29;38120;-81
2023/03/11 05:15:34;;;;;;;5.63;1.47;;;-1.80;99.90;;;;;;4914430;29;36792;-81
2023/03/11 05:18:01;;;;;;;4.33;1.30;;;-1.70;99.90;;;;;;4910703;29;38321;-81
2023/03/11 05:20:27;;;;;;;6.37;1.50;;;-1.70;99.90;;;;;;4936162;29;50004;-81
2023/03/11 05:22:54;;;;;;;4.67;1.93;;;-1.70;99.90;;;;;;4921467;29;38684;-83
2023/03/11 05:25:20;;;;;;;4.00;1.10;;;-1.80;99.90;;;;;;4908011;29;36045;-83
2023/03/11 05:27:46;;;;;;;8.00;1.40;;;-1.80;99.90;;;;;;4902463;29;37795;-81
2023/03/11 05:30:27;;;;;;;5.00;1.77;;;-1.80;99.90;;;;;;4918258;29;39846;-81
2023/03/11 05:32:55;;;;;;;6.53;1.37;;;-1.90;99.90;;;;;;4917182;29;37272;-81
2023/03/11 05:35:23;;;;;;;6.47;1.93;;;-1.90;99.90;;;;;;4912980;29;37403;-81
2023/03/11 05:37:52;;;;;;;7.03;1.87;;;-1.90;99.90;;;;;;4923207;29;38987;-81
2023/03/11 05:40:38;;;;;;;4.07;1.50;;;-1.90;99.90;;;;;;4937335;29;39645;-82
2023/03/11 05:43:16;;;;;;;6.03;1.83;;;-1.90;99.90;;;;;;4926730;29;20069;-82
2023/03/11 05:45:42;;;;;;;3.47;1.17;;;-1.80;99.90;;;;;;4920990;29;37453;-81
2023/03/11 05:48:11;;;;;;;6.97;1.50;;;-1.90;99.90;;;;;;4931499;28;40303;-82
2023/03/11 05:50:40;;;;;;;2.17;1.33;;;-2.00;99.90;;;;;;4913649;29;39196;-82
2023/03/11 05:53:16;;;;;;;9.60;1.80;;;-2.00;99.90;;;;;;4921829;29;38620;-82
2023/03/11 05:55:42;;;;;;;4.63;1.40;;;-1.90;99.90;;;;;;4919433;29;36234;-82
2023/03/11 05:58:09;;;;;;;7.37;1.27;;;-2.00;99.90;;;;;;4917303;29;38242;-80
2023/03/11 06:00:35;;;;;;;18.13;5.40;;;-2.00;99.90;;;;;;4924027;29;38031;-80
2023/03/11 06:03:01;;;;;;;12.90;4.13;;;-2.00;99.90;;;;;;4907284;29;37955;-81
2023/03/11 06:05:28;;;;;;;10.73;4.67;;;-2.00;99.90;;;;;;4893056;29;39179;-80
2023/03/11 06:07:54;;;;;;;11.03;3.37;;;-2.00;99.90;;;;;;4894483;29;37707;-82
2023/03/11 06:10:20;;;;;;;8.27;2.70;;;-2.00;99.90;;;;;;4879319;29;36965;-81
2023/03/11 06:12:47;;;;;;;8.10;2.37;;;-2.00;99.90;;;;;;4887126;29;37862;-82
2023/03/11 06:15:16;;;;;;;3.53;1.90;;;-2.10;99.90;;;;;;4880245;29;37094;-82
2023/03/11 06:17:42;;;;;;;6.07;2.03;;;-2.00;99.90;;;;;;4863758;29;39311;-81
2023/03/11 06:20:09;;;;;;;4.77;2.10;;;-2.00;99.90;;;;;;4887222;29;39117;-83
2023/03/11 06:22:40;;;;;;;8.40;2.20;;;-2.00;99.90;;;;;;4898278;29;37182;-81
2023/03/11 06:25:17;;;;;;;6.60;2.23;;;-2.00;99.90;;;;;;4903052;29;35957;-81
2023/03/11 06:27:49;;;;;;;3.73;1.80;;;-2.00;99.90;;;;;;4902118;29;38994;-81
2023/03/11 06:30:19;;;;;;;8.65;2.38;;;-2.00;99.90;;;;;;4891356;29;38894;-81
2023/03/11 06:32:48;;;;;;;6.23;2.20;;;-2.00;99.90;;;;;;4889839;29;38624;-81
2023/03/11 06:35:14;;;;;;;5.93;2.00;;;-2.00;99.90;;;;;;4886449;29;38866;-81
2023/03/11 06:37:41;;;;;;;2.77;2.00;;;-2.00;99.90;;;;;;4896216;29;38510;-80
2023/03/11 06:40:16;;;;;;;6.47;2.97;;;-2.00;99.90;;;;;;4885349;29;39844;-81
2023/03/11 06:42:47;;;;;;;4.23;2.40;;;-2.00;99.90;;;;;;4890200;29;38330;-81
2023/03/11 06:45:13;;;;;;;15.10;8.67;;;-1.90;99.90;;;;;;4891142;29;37117;-81
2023/03/11 06:47:40;;;;;;;13.30;6.13;;;-2.00;99.90;;;;;;4904055;29;38773;-82
2023/03/11 06:50:08;;;;;;;15.03;5.17;;;-2.00;99.90;;;;;;4883331;29;40047;-82
2023/03/11 06:52:34;;;;;;;8.03;4.70;;;-1.90;99.90;;;;;;4919144;23;39935;-81
2023/03/11 06:55:00;;;;;;;13.47;4.10;;;-1.90;99.90;;;;;;4940499;28;36151;-82
2023/03/11 06:57:29;;;;;;;4.70;2.43;;;-1.90;99.90;;;;;;4928762;29;37733;-82
2023/03/11 06:59:55;;;;;;;7.90;3.40;;;-1.90;99.90;;;;;;4940097;29;40353;-83
2023/03/11 07:02:24;;;;;;;15.90;3.50;;;-1.90;99.90;;;;;;4941365;28;37637;-82
2023/03/11 07:04:50;;;;;;;10.67;3.10;;;-1.80;99.90;;;;;;4948741;28;37131;-81
2023/03/11 07:07:17;;;;;;;7.90;3.13;;;-1.70;99.90;;;;;;4935781;28;38567;-81
2023/03/11 07:09:43;;;;;;;7.60;3.83;;;-1.70;99.90;;;;;;4953603;28;40263;-82
2023/03/11 07:12:13;;;;;;;12.03;4.97;;;-1.70;99.90;;;;;;4926399;29;37131;-81
2023/03/11 07:14:40;;;;;;;10.43;4.70;;;-1.70;99.90;;;;;;4924917;29;36406;-81
2023/03/11 07:17:25;;;;;;;14.93;5.10;;;-1.70;99.90;;;;;;4932211;28;38668;-81
2023/03/11 07:19:52;;;;;;;10.30;4.47;;;-1.70;99.90;;;;;;4930058;28;38694;-83
2023/03/11 07:22:19;;;;;;;9.70;5.23;;;-1.70;99.90;;;;;;4937449;29;37655;-82
2023/03/11 07:24:46;;;;;;;16.83;6.67;;;-1.60;99.90;;;;;;4948783;28;37150;-82
2023/03/11 07:27:12;;;;;;;9.83;4.73;;;-1.60;99.90;;;;;;4943667;28;37554;-82
2023/03/11 07:29:38;;;;;;;11.60;4.57;;;-1.50;99.90;;;;;;4927320;28;37948;-80
2023/03/11 07:32:06;;;;;;;10.63;5.03;;;-1.40;99.90;;;;;;4945117;28;38405;-82
2023/03/11 07:34:36;;;;;;;21.13;6.17;;;-1.30;99.90;;;;;;4928640;29;36260;-82
2023/03/11 07:37:08;;;;;;;13.37;5.03;;;-1.20;99.90;;;;;;4923984;29;38835;-83
2023/03/11 07:39:37;;;;;;;16.40;5.55;;;-1.10;99.90;;;;;;4936845;28;37576;-82
2023/03/11 07:45:40;;;;;;;19.77;7.87;;;-0.80;99.90;;;;;;5343478;23;49529;-85
2023/03/11 07:48:23;;;;;;;13.10;6.70;;;-0.60;99.90;;;;;;4948401;28;40967;-82
2023/03/11 07:50:58;;;;;;;15.85;4.95;;;-0.30;99.90;;;;;;5429417;23;39229;-83
2023/03/11 07:56:01;;;;;;;15.07;4.10;;;0.30;99.90;;;;;;5170379;23;20068;-80
2023/03/11 08:14:24;;;;;;;8.90;3.67;;;1.90;99.90;;;;;;5495507;23;20053;-80
2023/03/11 08:22:02;;;;;;;5.77;1.47;;;2.40;99.90;;;;;;5760241;23;20097;-82
2023/03/11 08:24:29;;;;;;;4.23;1.40;;;2.30;99.90;;;;;;4943357;28;38329;-83
2023/03/11 08:26:58;;;;;;;6.90;1.87;;;2.30;99.90;;;;;;4951159;28;38548;-82
2023/03/11 08:29:31;;;;;;;10.60;1.50;;;2.30;99.90;;;;;;4937015;28;39634;-83
2023/03/11 08:31:59;;;;;;;19.97;2.77;;;2.50;99.90;;;;;;4931186;29;39553;-83
2023/03/11 08:34:26;;;;;;;8.53;1.50;;;2.60;99.90;;;;;;4934034;29;36143;-83
2023/03/11 08:36:52;;;;;;;11.53;1.20;;;2.80;99.90;;;;;;4948918;28;38651;-83
2023/03/11 08:39:19;;;;;;;7.63;1.50;;;3.00;99.90;;;;;;4932362;28;38736;-83
2023/03/11 08:41:45;;;;;;;4.17;1.80;;;3.10;99.90;;;;;;4955250;28;39723;-83
2023/03/11 08:44:39;;;;;;;10.37;1.53;;;3.20;99.90;;;;;;4939163;28;38304;-82
2023/03/11 08:47:08;;;;;;;4.83;1.00;;;3.50;99.90;;;;;;4942164;28;37197;-83
2023/03/11 08:49:36;;;;;;;4.77;1.17;;;3.60;99.90;;;;;;4924442;29;39246;-82
2023/03/11 08:52:03;;;;;;;3.20;1.10;;;3.60;99.90;;;;;;4934468;29;39030;-83
2023/03/11 08:54:33;;;;;;;6.17;1.17;;;3.70;99.90;;;;;;4939209;28;38728;-83
2023/03/11 08:57:09;;;;;;;7.00;1.20;;;3.80;99.90;;;;;;4959759;28;38480;-84
2023/03/11 08:59:59;;;;;;;9.33;1.13;;;4.00;99.90;;;;;;4937896;28;48423;-83
2023/03/11 09:02:33;;;;;;;5.20;0.80;;;4.20;99.90;;;;;;4939335;28;38658;-83
2023/03/11 09:05:03;;;;;;;3.63;0.73;;;4.50;99.90;;;;;;4932182;28;39017;-83
2023/03/11 09:07:34;;;;;;;3.67;0.90;;;4.80;99.90;;;;;;4923796;29;38571;-83
2023/03/11 09:10:02;;;;;;;4.10;1.00;;;4.80;99.90;;;;;;4938536;29;40325;-82
2023/03/11 09:12:31;;;;;;;2.57;0.63;;;4.80;99.90;;;;;;4941423;28;39564;-82
2023/03/11 09:15:00;;;;;;;5.37;1.03;;;5.00;99.90;;;;;;4925248;29;38625;-82
2023/03/11 09:17:35;;;;;;;3.07;1.00;;;4.90;99.90;;;;;;4935039;29;38549;-82
2023/03/11 09:20:21;;;;;;;2.87;0.80;;;5.00;99.90;;;;;;4932678;29;38382;-81
2023/03/11 09:22:47;;;;;;;5.43;0.83;;;5.00;99.90;;;;;;4927564;29;47629;-81
2023/03/11 09:25:22;;;;;;;6.97;2.30;;;5.00;99.90;;;;;;4932946;29;39859;-81
2023/03/11 09:27:49;;;;;;;5.40;1.00;;;4.90;99.90;;;;;;4944940;28;38759;-81
2023/03/11 09:30:26;;;;;;;8.27;1.13;;;5.00;99.90;;;;;;4933352;28;39161;-81
2023/03/11 09:32:52;;;;;;;6.53;1.00;;;4.90;99.90;;;;;;5070482;23;38919;-79
2023/03/11 09:35:20;;;;;;;3.70;1.10;;;4.80;99.90;;;;;;4911090;29;37373;-81
2023/03/11 09:37:49;;;;;;;1.93;0.70;;;4.80;99.90;;;;;;4929795;29;39060;-81
2023/03/11 09:40:20;;;;;;;8.40;1.00;;;4.90;99.90;;;;;;4919994;28;37812;-82
2023/03/11 09:43:07;;;;;;;3.37;0.90;;;5.10;99.90;;;;;;4921391;29;41521;-83
2023/03/11 09:45:45;;;;;;;2.93;0.73;;;5.20;99.90;;;;;;4938408;28;47131;-81
2023/03/11 09:56:03;;;;;;;9.17;1.00;;;5.30;99.90;;;;;;5580365;23;20048;-81
2023/03/11 10:37:39;;;;;;;5.57;0.93;;;6.20;99.90;;;;;;5186792;23;20056;-81
2023/03/11 10:40:18;;;;;;;7.50;0.80;;;6.10;99.90;;;;;;4916643;29;35903;-81
2023/03/11 10:42:45;;;;;;;10.13;1.00;;;6.10;99.90;;;;;;4911395;29;36140;-82
2023/03/11 10:45:13;;;;;;;7.60;0.73;;;6.10;99.90;;;;;;4911835;29;39031;-81
2023/03/11 10:47:43;;;;;;;6.50;0.90;;;6.10;99.90;;;;;;4920060;29;38664;-82
2023/03/11 10:50:16;;;;;;;4.47;0.90;;;6.00;99.90;;;;;;4904386;29;36023;-82
2023/03/11 10:53:06;;;;;;;4.67;0.87;;;6.20;99.90;;;;;;4922773;29;40261;-81
2023/03/11 10:55:33;;;;;;;3.67;0.73;;;6.40;99.90;;;;;;4920104;29;48905;-82
2023/03/11 10:58:12;;;;;;;4.80;1.27;;;6.40;99.90;;;;;;4905064;29;36816;-81
2023/03/11 11:00:39;;;;;;;5.07;0.60;;;6.20;99.90;;;;;;4906101;29;47182;-82
2023/03/11 11:03:15;;;;;;;4.43;1.07;;;6.20;99.90;;;;;;4913639;29;39646;-81
2023/03/11 11:05:42;;;;;;;2.03;0.63;;;6.60;99.90;;;;;;4923615;29;37790;-81
2023/03/11 11:08:20;;;;;;;5.10;0.73;;;6.80;99.90;;;;;;5111019;23;37067;-80
2023/03/11 11:10:58;;;;;;;3.47;0.80;;;6.90;99.90;;;;;;4926531;28;36707;-80
2023/03/11 11:13:37;;;;;;;8.13;0.90;;;6.60;99.90;;;;;;4899957;29;38725;-81
2023/03/11 11:16:17;;;;;;;6.57;1.03;;;6.30;99.90;;;;;;4919088;29;37269;-81
2023/03/11 11:18:54;;;;;;;3.47;0.67;;;6.40;99.90;;;;;;4931923;29;37959;-81
2023/03/11 11:21:52;;;;;;;4.00;1.23;;;6.60;99.90;;;;;;4925678;29;36657;-80
2023/03/11 11:24:28;;;;;;;4.13;1.00;;;6.80;99.90;;;;;;4880137;29;37791;-80
2023/03/11 11:27:18;;;;;;;9.80;1.13;;;6.80;99.90;;;;;;4910218;29;38695;-81
2023/03/11 11:29:45;;;;;;;2.50;0.50;;;6.80;99.90;;;;;;4910994;29;48875;-79
2023/03/11 11:32:15;;;;;;;7.43;1.87;;;6.70;99.90;;;;;;4917321;29;35996;-80
2023/03/11 11:34:53;;;;;;;8.10;0.87;;;6.60;99.90;;;;;;4925209;29;37640;-80
2023/03/11 11:37:19;;;;;;;5.77;0.57;;;7.00;99.90;;;;;;4906000;29;37933;-80
2023/03/11 11:39:56;;;;;;;4.63;1.00;;;7.10;99.90;;;;;;4911246;29;40258;-81
2023/03/11 11:42:25;;;;;;;4.27;1.10;;;7.20;99.90;;;;;;4928242;29;37138;-82
2023/03/11 11:45:01;;;;;;;6.10;0.90;;;7.50;99.90;;;;;;4935041;29;37877;-81
2023/03/11 11:47:32;;;;;;;8.23;1.30;;;7.80;99.90;;;;;;4924959;29;37794;-81
2023/03/11 11:50:12;;;;;;;1.85;0.50;;;7.70;99.90;;;;;;4929220;29;39112;-80
2023/03/11 11:52:50;;;;;;;4.13;0.80;;;7.50;99.90;;;;;;4913961;29;46977;-80
2023/03/11 11:55:21;;;;;;;7.57;1.40;;;7.30;99.90;;;;;;4919155;28;39687;-81
2023/03/11 11:57:48;;;;;;;2.77;0.70;;;7.30;99.90;;;;;;4931410;29;37743;-80
2023/03/11 12:00:19;;;;;;;5.50;1.10;;;7.60;99.90;;;;;;4915275;29;38137;-79
2023/03/11 12:03:14;;;;;;;3.53;0.80;;;7.60;99.90;;;;;;4909313;29;47374;-79
2023/03/11 12:05:59;;;;;;;4.57;0.83;;;7.40;99.90;;;;;;4910565;29;47142;-81
2023/03/11 12:08:36;;;;;;;5.47;1.00;;;7.20;99.90;;;;;;4909017;29;37850;-80
2023/03/11 12:11:07;;;;;;;4.93;1.10;;;7.10;99.90;;;;;;4918251;29;38839;-80
2023/03/11 12:14:19;;;;;;;5.17;0.60;;;7.40;99.90;;;;;;4915298;29;36644;-80
2023/03/11 12:17:04;;;;;;;6.23;0.90;;;7.80;99.90;;;;;;4893668;29;48059;-81
2023/03/11 12:19:45;;;;;;;4.07;0.53;;;7.70;99.90;;;;;;4932257;29;49085;-81
2023/03/11 12:25:06;;;;;;;3.40;0.80;;;8.00;99.90;;;;;;5041447;23;20050;-79
2023/03/11 12:28:12;;;;;;;5.87;1.00;;;8.00;99.90;;;;;;4940809;29;48368;-81
2023/03/11 12:33:52;;;;;;;4.50;0.87;;;8.00;99.90;;;;;;4931242;29;20046;-81
2023/03/11 12:36:29;;;;;;;4.60;0.80;;;8.40;99.90;;;;;;4909627;29;37709;-82
2023/03/11 12:39:04;;;;;;;3.27;0.73;;;8.70;99.90;;;;;;4913172;29;38102;-82
2023/03/11 12:41:41;;;;;;;2.63;0.80;;;8.60;99.90;;;;;;4918026;29;50131;-81
2023/03/11 12:44:31;;;;;;;3.70;0.70;;;8.80;99.90;;;;;;4920836;29;38613;-81
2023/03/11 12:46:57;;;;;;;2.00;0.50;;;8.80;99.90;;;;;;4927403;23;38492;-82
2023/03/11 12:49:31;;;;;;;3.93;0.60;;;8.50;99.90;;;;;;4891522;28;38803;-81
2023/03/11 12:52:12;;;;;;;2.50;0.60;;;8.20;99.90;;;;;;4898819;29;37634;-82
2023/03/11 12:54:39;;;;;;;2.60;0.73;;;8.10;99.90;;;;;;5015482;23;48100;-80
2023/03/11 12:57:19;;;;;;;6.47;0.90;;;8.10;99.90;;;;;;4904122;29;35926;-81
2023/03/11 13:00:22;;;;;;;3.50;0.73;;;8.20;99.90;;;;;;4951783;28;38708;-81
2023/03/11 13:03:06;;;;;;;4.75;0.50;;;8.30;99.90;;;;;;4933566;28;47426;-82
2023/03/11 13:05:59;;;;;;;2.57;0.40;;;8.40;99.90;;;;;;4912308;29;48059;-81
2023/03/11 13:08:33;;;;;;;;;;;8.10;99.90;;;;;;4926068;28;37094;-81
2023/03/11 13:10:59;;;;;;;3.80;0.90;;;8.10;99.90;;;;;;4921963;29;39963;-81
2023/03/11 13:15:57;;;;;;;2.67;0.53;;;8.60;99.90;;;;;;4937491;28;20040;-81
2023/03/11 13:18:32;;;;;;;1.80;0.50;;;8.50;99.90;;;;;;5065944;23;37240;-82
2023/03/11 13:20:59;;;;;;;3.50;0.70;;;8.70;99.90;;;;;;4922029;29;38821;-82
2023/03/11 13:23:34;;;;;;;5.10;0.50;;;8.70;99.90;;;;;;4920619;29;38768;-81
2023/03/11 13:26:32;;;;;;;3.13;0.57;;;8.90;99.90;;;;;;4912601;29;39581;-81
2023/03/11 13:29:33;;;;;;;3.73;0.40;;;8.70;99.90;;;;;;4834272;29;48133;-82
2023/03/11 13:32:18;;;;;;;3.50;0.40;;;8.70;99.90;;;;;;4909947;29;48050;-82
2023/03/11 13:34:49;;;;;;;3.97;0.60;;;8.50;99.90;;;;;;4916570;29;46756;-82
2023/03/11 13:37:37;;;;;;;3.43;0.53;;;8.70;99.90;;;;;;4916934;29;37741;-82
2023/03/11 13:40:29;;;;;;;2.37;0.60;;;8.80;99.90;;;;;;4919889;29;38812;-82
2023/03/11 13:45:34;;;;;;;2.53;0.60;;;9.10;99.90;;;;;;5012391;23;20040;-80
2023/03/11 13:48:23;;;;;;;2.63;0.60;;;9.40;99.90;;;;;;5139675;23;38479;-81
2023/03/11 13:51:00;;;;;;;5.47;1.17;;;9.50;99.90;;;;;;5029745;23;46684;-80
2023/03/11 13:53:50;;;;;;;6.47;0.87;;;9.10;99.90;;;;;;4922227;29;38382;-80
2023/03/11 13:56:38;;;;;;;3.23;0.60;;;9.20;99.90;;;;;;4920389;28;40453;-82
2023/03/11 14:01:50;;;;;;;7.63;0.50;;;9.30;99.90;;;;;;5476084;23;20054;-80
2023/03/11 14:04:25;;;;;;;3.80;0.50;;;9.20;99.90;;;;;;4953843;28;39058;-81
2023/03/11 14:06:51;;;;;;;4.03;0.60;;;9.40;99.90;;;;;;4959430;23;38918;-80
2023/03/11 14:09:20;;;;;;;1.83;0.30;;;9.20;99.90;;;;;;5042415;23;35691;-82
2023/03/11 14:11:47;;;;;;;3.13;0.67;;;8.90;99.90;;;;;;4934376;29;37437;-82
2023/03/11 14:16:55;;;;;;;2.87;0.53;;;8.70;99.90;;;;;;4958716;28;20047;-81
2023/03/11 14:21:58;;;;;;;3.70;0.70;;;8.90;99.90;;;;;;5674305;23;20053;-82
2023/03/11 14:24:31;;;;;;;12.47;1.33;;;9.00;99.90;;;;;;4933760;28;38908;-81
2023/03/11 14:27:00;;;;;;;6.43;0.60;;;8.90;99.90;;;;;;4942088;28;37515;-81
2023/03/11 14:30:12;;;;;;;4.33;0.80;;;8.90;99.90;;;;;;4928439;29;37901;-82
2023/03/11 14:32:38;;;;;;;5.10;1.47;;;8.80;99.90;;;;;;5659008;23;48909;-81
2023/03/11 14:35:34;;;;;;;2.50;0.40;;;9.00;99.90;;;;;;5152781;23;40635;-82
2023/03/11 14:38:44;;;;;;;5.40;0.50;;;9.10;99.90;;;;;;4911573;29;36238;-81
2023/03/11 14:41:13;;;;;;;2.80;0.70;;;9.00;99.90;;;;;;4921474;29;48987;-81
2023/03/11 14:43:48;;;;;;;6.40;0.50;;;9.20;99.90;;;;;;4925282;29;37468;-81
2023/03/11 14:46:20;;;;;;;4.60;0.90;;;9.30;99.90;;;;;;4920810;29;39918;-80
2023/03/11 14:48:49;;;;;;;3.00;0.80;;;9.30;99.90;;;;;;4921912;29;38290;-81
2023/03/11 14:51:30;;;;;;;5.07;1.00;;;9.30;99.90;;;;;;4917274;29;37159;-80